sensor_id;sensor_type;location;lat;lon;timestamp;temperature;humidity
25280;DHT22;13225;47.804;12.116;2022-12-20T00:01:11;-0.40;99.90
25280;DHT22;13225;47.804;12.116;2022-12-20T00:03:37;-0.30;99.90
25280;DHT22;13225;47.804;12.116;2022-12-20T00:06:04;-0.30;99.90
25280;DHT22;13225;47.804;12.116;2022-12-20T00:08:30;-0.20;99.90
25280;DHT22;13225;47.804;12.116;2022-12-20T00:11:00;-0.10;99.90
25280;DHT22;13225;47.804;12.116;2022-12-20T00:13:26;-0.20;99.90
25280;DHT22;13225;47.804;12.116;2022-12-20T00:16:03;-0.30;99.90
25280;DHT22;13225;47.804;12.116;2022-12-20T00:18:29;-0.40;99.90
25280;DHT22;13225;47.804;12.116;2022-12-20T00:21:00;-0.50;99.90
25280;DHT22;13225;47.804;12.116;2022-12-20T00:23:25;-0.50;99.90
25280;DHT22;13225;47.804;12.116;2022-12-20T00:25:51;-0.60;99.90
25280;DHT22;13225;47.804;12.116;2022-12-20T00:28:17;-0.60;99.90
25280;DHT22;13225;47.804;12.116;2022-12-20T00:30:42;-0.50;99.90
25280;DHT22;13225;47.804;12.116;2022-12-20T00:33:08;-0.30;99.90
25280;DHT22;13225;47.804;12.116;2022-12-20T00:35:34;-0.30;99.90
25280;DHT22;13225;47.804;12.116;2022-12-20T00:38:00;-0.30;99.90
25280;DHT22;13225;47.804;12.116;2022-12-20T00:40:25;-0.10;99.90
25280;DHT22;13225;47.804;12.116;2022-12-20T00:42:51;0.00;99.90
25280;DHT22;13225;47.804;12.116;2022-12-20T00:45:16;0.20;99.90
25280;DHT22;13225;47.804;12.116;2022-12-20T00:47:42;0.30;99.90
25280;DHT22;13225;47.804;12.116;2022-12-20T00:50:07;0.40;99.90
25280;DHT22;13225;47.804;12.116;2022-12-20T00:52:33;0.50;99.90
25280;DHT22;13225;47.804;12.116;2022-12-20T00:54:59;0.60;99.90
25280;DHT22;13225;47.804;12.116;2022-12-20T00:57:24;0.60;99.90
25280;DHT22;13225;47.804;12.116;2022-12-20T00:59:50;0.70;99.90
25280;DHT22;13225;47.804;12.116;2022-12-20T01:02:15;0.70;99.90
25280;DHT22;13225;47.804;12.116;2022-12-20T01:04:41;0.70;99.90
25280;DHT22;13225;47.804;12.116;2022-12-20T01:07:07;0.90;99.90
25280;DHT22;13225;47.804;12.116;2022-12-20T01:09:32;1.00;99.90
25280;DHT22;13225;47.804;12.116;2022-12-20T01:11:58;1.10;99.90
25280;DHT22;13225;47.804;12.116;2022-12-20T01:14:24;1.20;99.90
25280;DHT22;13225;47.804;12.116;2022-12-20T01:16:49;1.30;99.90
25280;DHT22;13225;47.804;12.116;2022-12-20T01:19:17;1.20;99.90
25280;DHT22;13225;47.804;12.116;2022-12-20T01:21:43;1.20;99.90
25280;DHT22;13225;47.804;12.116;2022-12-20T01:24:17;1.20;99.90
25280;DHT22;13225;47.804;12.116;2022-12-20T01:26:43;1.10;99.90
25280;DHT22;13225;47.804;12.116;2022-12-20T01:29:09;1.30;99.90
25280;DHT22;13225;47.804;12.116;2022-12-20T01:31:35;1.30;99.90
25280;DHT22;13225;47.804;12.116;2022-12-20T01:34:01;1.30;99.90
25280;DHT22;13225;47.804;12.116;2022-12-20T01:36:29;1.30;99.90
25280;DHT22;13225;47.804;12.116;2022-12-20T01:38:57;1.30;99.90
25280;DHT22;13225;47.804;12.116;2022-12-20T01:41:24;1.30;99.90
25280;DHT22;13225;47.804;12.116;2022-12-20T01:43:54;1.30;99.90
25280;DHT22;13225;47.804;12.116;2022-12-20T01:46:22;1.30;99.90
25280;DHT22;13225;47.804;12.116;2022-12-20T01:49:01;1.30;99.90
25280;DHT22;13225;47.804;12.116;2022-12-20T01:51:31;1.20;99.90
25280;DHT22;13225;47.804;12.116;2022-12-20T01:54:09;1.20;99.90
25280;DHT22;13225;47.804;12.116;2022-12-20T01:56:36;1.10;99.90
25280;DHT22;13225;47.804;12.116;2022-12-20T01:59:05;1.00;99.90
25280;DHT22;13225;47.804;12.116;2022-12-20T02:01:31;0.90;99.90
25280;DHT22;13225;47.804;12.116;2022-12-20T02:03:56;0.90;99.90
25280;DHT22;13225;47.804;12.116;2022-12-20T02:06:25;1.00;99.90
25280;DHT22;13225;47.804;12.116;2022-12-20T02:08:51;1.10;99.90
25280;DHT22;13225;47.804;12.116;2022-12-20T02:17:01;1.30;99.90
25280;DHT22;13225;47.804;12.116;2022-12-20T02:20:12;1.40;99.90
25280;DHT22;13225;47.804;12.116;2022-12-20T02:26:05;1.60;99.90
25280;DHT22;13225;47.804;12.116;2022-12-20T02:31:50;1.70;99.90
25280;DHT22;13225;47.804;12.116;2022-12-20T02:34:21;1.70;99.90
25280;DHT22;13225;47.804;12.116;2022-12-20T02:36:49;1.80;99.90
25280;DHT22;13225;47.804;12.116;2022-12-20T02:39:15;1.80;99.90
25280;DHT22;13225;47.804;12.116;2022-12-20T02:41:49;1.90;99.90
25280;DHT22;13225;47.804;12.116;2022-12-20T02:44:18;1.90;99.90
25280;DHT22;13225;47.804;12.116;2022-12-20T02:47:05;2.00;99.90
25280;DHT22;13225;47.804;12.116;2022-12-20T02:49:33;2.00;99.90
25280;DHT22;13225;47.804;12.116;2022-12-20T02:52:03;2.00;99.90
25280;DHT22;13225;47.804;12.116;2022-12-20T02:54:30;2.00;99.90
25280;DHT22;13225;47.804;12.116;2022-12-20T03:02:42;1.90;99.90
25280;DHT22;13225;47.804;12.116;2022-12-20T03:05:27;1.70;99.90
25280;DHT22;13225;47.804;12.116;2022-12-20T03:07:53;1.60;99.90
25280;DHT22;13225;47.804;12.116;2022-12-20T03:10:20;1.50;99.90
25280;DHT22;13225;47.804;12.116;2022-12-20T03:12:46;1.30;99.90
25280;DHT22;13225;47.804;12.116;2022-12-20T03:15:12;1.00;99.90
25280;DHT22;13225;47.804;12.116;2022-12-20T03:17:37;0.90;99.90
25280;DHT22;13225;47.804;12.116;2022-12-20T03:20:06;0.70;99.90
25280;DHT22;13225;47.804;12.116;2022-12-20T03:22:33;0.70;99.90
25280;DHT22;13225;47.804;12.116;2022-12-20T03:24:59;0.70;99.90
25280;DHT22;13225;47.804;12.116;2022-12-20T03:27:25;0.70;99.90
25280;DHT22;13225;47.804;12.116;2022-12-20T03:29:52;0.80;99.90
25280;DHT22;13225;47.804;12.116;2022-12-20T03:32:18;1.10;99.90
25280;DHT22;13225;47.804;12.116;2022-12-20T03:34:44;1.30;99.90
25280;DHT22;13225;47.804;12.116;2022-12-20T03:37:09;1.30;99.90
25280;DHT22;13225;47.804;12.116;2022-12-20T03:39:35;1.30;99.90
25280;DHT22;13225;47.804;12.116;2022-12-20T03:42:01;1.10;99.90
25280;DHT22;13225;47.804;12.116;2022-12-20T03:44:26;1.00;99.90
25280;DHT22;13225;47.804;12.116;2022-12-20T03:46:52;0.80;99.90
25280;DHT22;13225;47.804;12.116;2022-12-20T03:49:17;0.60;99.90
25280;DHT22;13225;47.804;12.116;2022-12-20T03:51:43;0.40;99.90
25280;DHT22;13225;47.804;12.116;2022-12-20T03:54:09;0.50;99.90
25280;DHT22;13225;47.804;12.116;2022-12-20T03:56:34;0.50;99.90
25280;DHT22;13225;47.804;12.116;2022-12-20T03:59:00;0.50;99.90
25280;DHT22;13225;47.804;12.116;2022-12-20T04:01:27;0.50;99.90
25280;DHT22;13225;47.804;12.116;2022-12-20T04:03:54;0.50;99.90
25280;DHT22;13225;47.804;12.116;2022-12-20T04:06:21;0.60;99.90
25280;DHT22;13225;47.804;12.116;2022-12-20T04:08:47;0.80;99.90
25280;DHT22;13225;47.804;12.116;2022-12-20T04:11:12;0.90;99.90
25280;DHT22;13225;47.804;12.116;2022-12-20T04:13:46;1.10;99.90
25280;DHT22;13225;47.804;12.116;2022-12-20T04:16:13;1.20;99.90
25280;DHT22;13225;47.804;12.116;2022-12-20T04:18:39;1.20;99.90
25280;DHT22;13225;47.804;12.116;2022-12-20T04:21:05;1.00;99.90
25280;DHT22;13225;47.804;12.116;2022-12-20T04:23:35;0.80;99.90
25280;DHT22;13225;47.804;12.116;2022-12-20T04:26:02;0.60;99.90
25280;DHT22;13225;47.804;12.116;2022-12-20T04:28:30;0.50;99.90
25280;DHT22;13225;47.804;12.116;2022-12-20T04:30:56;0.50;99.90
25280;DHT22;13225;47.804;12.116;2022-12-20T04:33:23;0.60;99.90
25280;DHT22;13225;47.804;12.116;2022-12-20T04:35:49;0.60;99.90
25280;DHT22;13225;47.804;12.116;2022-12-20T04:38:15;0.80;99.90
25280;DHT22;13225;47.804;12.116;2022-12-20T04:40:41;1.00;99.90
25280;DHT22;13225;47.804;12.116;2022-12-20T04:43:06;1.30;99.90
25280;DHT22;13225;47.804;12.116;2022-12-20T04:45:33;1.40;99.90
25280;DHT22;13225;47.804;12.116;2022-12-20T04:47:58;1.40;99.90
25280;DHT22;13225;47.804;12.116;2022-12-20T04:50:24;1.50;99.90
25280;DHT22;13225;47.804;12.116;2022-12-20T04:52:50;1.60;99.90
25280;DHT22;13225;47.804;12.116;2022-12-20T04:55:38;1.60;99.90
25280;DHT22;13225;47.804;12.116;2022-12-20T04:58:05;1.70;99.90
25280;DHT22;13225;47.804;12.116;2022-12-20T05:00:32;1.60;99.90
25280;DHT22;13225;47.804;12.116;2022-12-20T05:02:58;1.70;99.90
25280;DHT22;13225;47.804;12.116;2022-12-20T05:05:24;1.70;99.90
25280;DHT22;13225;47.804;12.116;2022-12-20T05:07:50;1.70;99.90
25280;DHT22;13225;47.804;12.116;2022-12-20T05:10:16;1.70;99.90
25280;DHT22;13225;47.804;12.116;2022-12-20T05:12:42;1.70;99.90
25280;DHT22;13225;47.804;12.116;2022-12-20T05:15:08;1.70;99.90
25280;DHT22;13225;47.804;12.116;2022-12-20T05:17:34;1.50;99.90
25280;DHT22;13225;47.804;12.116;2022-12-20T05:19:59;1.30;99.90
25280;DHT22;13225;47.804;12.116;2022-12-20T05:22:25;1.00;99.90
25280;DHT22;13225;47.804;12.116;2022-12-20T05:25:10;0.90;99.90
25280;DHT22;13225;47.804;12.116;2022-12-20T05:27:54;0.70;99.90
25280;DHT22;13225;47.804;12.116;2022-12-20T05:30:20;0.60;99.90
25280;DHT22;13225;47.804;12.116;2022-12-20T05:32:46;0.50;99.90
25280;DHT22;13225;47.804;12.116;2022-12-20T05:35:12;0.50;99.90
25280;DHT22;13225;47.804;12.116;2022-12-20T05:37:37;0.40;99.90
25280;DHT22;13225;47.804;12.116;2022-12-20T05:40:03;0.40;99.90
25280;DHT22;13225;47.804;12.116;2022-12-20T05:42:29;0.40;99.90
25280;DHT22;13225;47.804;12.116;2022-12-20T05:44:55;0.60;99.90
25280;DHT22;13225;47.804;12.116;2022-12-20T05:47:20;0.60;99.90
25280;DHT22;13225;47.804;12.116;2022-12-20T05:49:46;0.80;99.90
25280;DHT22;13225;47.804;12.116;2022-12-20T05:52:12;1.00;99.90
25280;DHT22;13225;47.804;12.116;2022-12-20T05:54:37;1.20;99.90
25280;DHT22;13225;47.804;12.116;2022-12-20T05:57:03;1.40;99.90
25280;DHT22;13225;47.804;12.116;2022-12-20T05:59:28;1.60;99.90
25280;DHT22;13225;47.804;12.116;2022-12-20T06:01:54;1.60;99.90
25280;DHT22;13225;47.804;12.116;2022-12-20T06:04:20;1.70;99.90
25280;DHT22;13225;47.804;12.116;2022-12-20T06:06:46;1.60;99.90
25280;DHT22;13225;47.804;12.116;2022-12-20T06:09:11;1.60;99.90
25280;DHT22;13225;47.804;12.116;2022-12-20T06:11:37;1.50;99.90
25280;DHT22;13225;47.804;12.116;2022-12-20T06:14:03;1.60;99.90
25280;DHT22;13225;47.804;12.116;2022-12-20T06:16:28;1.60;99.90
25280;DHT22;13225;47.804;12.116;2022-12-20T06:18:54;1.80;99.90
25280;DHT22;13225;47.804;12.116;2022-12-20T06:21:21;1.80;99.90
25280;DHT22;13225;47.804;12.116;2022-12-20T06:23:47;2.00;99.90
25280;DHT22;13225;47.804;12.116;2022-12-20T06:26:12;2.10;99.90
25280;DHT22;13225;47.804;12.116;2022-12-20T06:28:38;2.10;99.90
25280;DHT22;13225;47.804;12.116;2022-12-20T06:31:10;2.00;99.90
25280;DHT22;13225;47.804;12.116;2022-12-20T06:33:36;1.90;99.90
25280;DHT22;13225;47.804;12.116;2022-12-20T06:36:05;1.80;99.90
25280;DHT22;13225;47.804;12.116;2022-12-20T06:38:31;1.70;99.90
25280;DHT22;13225;47.804;12.116;2022-12-20T06:40:56;1.70;99.90
25280;DHT22;13225;47.804;12.116;2022-12-20T06:43:29;1.90;99.90
25280;DHT22;13225;47.804;12.116;2022-12-20T06:45:55;2.00;99.90
25280;DHT22;13225;47.804;12.116;2022-12-20T06:48:23;2.10;99.90
25280;DHT22;13225;47.804;12.116;2022-12-20T06:50:49;2.10;99.90
25280;DHT22;13225;47.804;12.116;2022-12-20T06:53:15;2.20;99.90
25280;DHT22;13225;47.804;12.116;2022-12-20T06:55:41;2.20;99.90
25280;DHT22;13225;47.804;12.116;2022-12-20T06:58:07;2.30;99.90
25280;DHT22;13225;47.804;12.116;2022-12-20T07:00:32;2.30;99.90
25280;DHT22;13225;47.804;12.116;2022-12-20T07:02:58;2.40;99.90
25280;DHT22;13225;47.804;12.116;2022-12-20T07:05:24;2.30;99.90
25280;DHT22;13225;47.804;12.116;2022-12-20T07:07:50;2.30;99.90
25280;DHT22;13225;47.804;12.116;2022-12-20T07:10:18;2.10;99.90
25280;DHT22;13225;47.804;12.116;2022-12-20T07:12:44;2.00;99.90
25280;DHT22;13225;47.804;12.116;2022-12-20T07:15:12;1.80;99.90
25280;DHT22;13225;47.804;12.116;2022-12-20T07:17:38;1.70;99.90
25280;DHT22;13225;47.804;12.116;2022-12-20T07:20:04;1.50;99.90
25280;DHT22;13225;47.804;12.116;2022-12-20T07:22:31;1.50;99.90
25280;DHT22;13225;47.804;12.116;2022-12-20T07:24:59;1.60;99.90
25280;DHT22;13225;47.804;12.116;2022-12-20T07:27:24;1.70;99.90
25280;DHT22;13225;47.804;12.116;2022-12-20T07:29:50;1.80;99.90
25280;DHT22;13225;47.804;12.116;2022-12-20T07:32:16;2.00;99.90
25280;DHT22;13225;47.804;12.116;2022-12-20T07:34:42;2.20;99.90
25280;DHT22;13225;47.804;12.116;2022-12-20T07:37:09;2.30;99.90
25280;DHT22;13225;47.804;12.116;2022-12-20T07:39:35;2.20;99.90
25280;DHT22;13225;47.804;12.116;2022-12-20T07:42:01;2.30;99.90
25280;DHT22;13225;47.804;12.116;2022-12-20T07:44:26;2.30;99.90
25280;DHT22;13225;47.804;12.116;2022-12-20T07:46:59;2.30;99.90
25280;DHT22;13225;47.804;12.116;2022-12-20T07:49:25;2.30;99.90
25280;DHT22;13225;47.804;12.116;2022-12-20T07:51:56;2.10;99.90
25280;DHT22;13225;47.804;12.116;2022-12-20T07:54:30;1.90;99.90
25280;DHT22;13225;47.804;12.116;2022-12-20T07:57:00;1.90;99.90
25280;DHT22;13225;47.804;12.116;2022-12-20T07:59:34;1.80;99.90
25280;DHT22;13225;47.804;12.116;2022-12-20T08:02:01;1.70;99.90
25280;DHT22;13225;47.804;12.116;2022-12-20T08:04:27;1.60;99.90
25280;DHT22;13225;47.804;12.116;2022-12-20T08:07:00;1.60;99.90
25280;DHT22;13225;47.804;12.116;2022-12-20T08:09:40;1.60;99.90
25280;DHT22;13225;47.804;12.116;2022-12-20T08:12:10;1.40;99.90
25280;DHT22;13225;47.804;12.116;2022-12-20T08:14:41;1.50;99.90
25280;DHT22;13225;47.804;12.116;2022-12-20T08:17:09;1.40;99.90
25280;DHT22;13225;47.804;12.116;2022-12-20T08:19:36;1.40;99.90
25280;DHT22;13225;47.804;12.116;2022-12-20T08:22:03;1.40;99.90
25280;DHT22;13225;47.804;12.116;2022-12-20T08:24:32;1.50;99.90
25280;DHT22;13225;47.804;12.116;2022-12-20T08:26:58;1.50;99.90
25280;DHT22;13225;47.804;12.116;2022-12-20T08:29:24;1.50;99.90
25280;DHT22;13225;47.804;12.116;2022-12-20T08:31:50;1.60;99.90
25280;DHT22;13225;47.804;12.116;2022-12-20T08:34:17;1.60;99.90
25280;DHT22;13225;47.804;12.116;2022-12-20T08:36:42;1.70;99.90
25280;DHT22;13225;47.804;12.116;2022-12-20T08:39:08;1.90;99.90
25280;DHT22;13225;47.804;12.116;2022-12-20T08:41:36;2.20;99.90
25280;DHT22;13225;47.804;12.116;2022-12-20T08:44:03;2.40;99.90
25280;DHT22;13225;47.804;12.116;2022-12-20T08:46:29;2.60;99.90
25280;DHT22;13225;47.804;12.116;2022-12-20T08:48:54;2.80;99.90
25280;DHT22;13225;47.804;12.116;2022-12-20T08:51:20;3.10;99.90
25280;DHT22;13225;47.804;12.116;2022-12-20T08:53:46;3.20;99.90
25280;DHT22;13225;47.804;12.116;2022-12-20T08:56:16;3.20;99.90
25280;DHT22;13225;47.804;12.116;2022-12-20T08:58:44;3.30;99.90
25280;DHT22;13225;47.804;12.116;2022-12-20T09:01:13;3.30;99.90
25280;DHT22;13225;47.804;12.116;2022-12-20T09:03:42;3.40;99.90
25280;DHT22;13225;47.804;12.116;2022-12-20T09:06:10;3.40;99.90
25280;DHT22;13225;47.804;12.116;2022-12-20T09:08:38;3.40;99.90
25280;DHT22;13225;47.804;12.116;2022-12-20T09:11:06;3.40;99.90
25280;DHT22;13225;47.804;12.116;2022-12-20T09:13:32;3.20;99.90
25280;DHT22;13225;47.804;12.116;2022-12-20T09:16:08;3.20;99.90
25280;DHT22;13225;47.804;12.116;2022-12-20T09:18:41;3.30;99.90
25280;DHT22;13225;47.804;12.116;2022-12-20T09:21:07;3.30;99.90
25280;DHT22;13225;47.804;12.116;2022-12-20T09:23:37;3.50;99.90
25280;DHT22;13225;47.804;12.116;2022-12-20T09:26:05;3.70;99.90
25280;DHT22;13225;47.804;12.116;2022-12-20T09:28:32;3.70;99.90
25280;DHT22;13225;47.804;12.116;2022-12-20T09:31:02;3.70;99.90
25280;DHT22;13225;47.804;12.116;2022-12-20T09:33:29;3.70;99.90
25280;DHT22;13225;47.804;12.116;2022-12-20T09:36:03;3.60;99.90
25280;DHT22;13225;47.804;12.116;2022-12-20T09:38:30;3.60;99.90
25280;DHT22;13225;47.804;12.116;2022-12-20T09:40:59;3.70;99.90
25280;DHT22;13225;47.804;12.116;2022-12-20T09:43:26;3.90;99.90
25280;DHT22;13225;47.804;12.116;2022-12-20T09:45:54;4.00;99.90
25280;DHT22;13225;47.804;12.116;2022-12-20T09:48:36;4.10;99.90
25280;DHT22;13225;47.804;12.116;2022-12-20T09:53:39;4.20;99.90
25280;DHT22;13225;47.804;12.116;2022-12-20T09:56:35;4.30;99.90
25280;DHT22;13225;47.804;12.116;2022-12-20T09:59:03;4.30;99.90
25280;DHT22;13225;47.804;12.116;2022-12-20T10:01:32;4.20;99.90
25280;DHT22;13225;47.804;12.116;2022-12-20T10:04:03;4.10;99.90
25280;DHT22;13225;47.804;12.116;2022-12-20T10:06:39;4.20;99.90
25280;DHT22;13225;47.804;12.116;2022-12-20T10:23:24;4.40;99.90
25280;DHT22;13225;47.804;12.116;2022-12-20T10:25:54;4.40;99.90
25280;DHT22;13225;47.804;12.116;2022-12-20T10:28:28;4.40;99.90
25280;DHT22;13225;47.804;12.116;2022-12-20T10:31:00;4.30;99.90
25280;DHT22;13225;47.804;12.116;2022-12-20T10:33:27;4.10;99.90
25280;DHT22;13225;47.804;12.116;2022-12-20T10:35:53;4.00;99.90
25280;DHT22;13225;47.804;12.116;2022-12-20T10:38:19;4.20;99.90
25280;DHT22;13225;47.804;12.116;2022-12-20T10:43:21;4.60;99.90
25280;DHT22;13225;47.804;12.116;2022-12-20T10:46:07;4.70;99.90
25280;DHT22;13225;47.804;12.116;2022-12-20T10:48:39;4.80;99.90
25280;DHT22;13225;47.804;12.116;2022-12-20T10:51:12;4.90;99.90
25280;DHT22;13225;47.804;12.116;2022-12-20T10:53:57;4.80;99.90
25280;DHT22;13225;47.804;12.116;2022-12-20T10:56:24;4.90;99.90
25280;DHT22;13225;47.804;12.116;2022-12-20T10:58:57;5.10;99.90
25280;DHT22;13225;47.804;12.116;2022-12-20T11:01:34;5.10;99.90
25280;DHT22;13225;47.804;12.116;2022-12-20T11:04:20;4.90;99.90
25280;DHT22;13225;47.804;12.116;2022-12-20T11:06:50;4.80;99.90
25280;DHT22;13225;47.804;12.116;2022-12-20T11:09:31;4.60;99.90
25280;DHT22;13225;47.804;12.116;2022-12-20T11:12:12;4.50;99.90
25280;DHT22;13225;47.804;12.116;2022-12-20T11:14:39;4.40;99.90
25280;DHT22;13225;47.804;12.116;2022-12-20T11:30:40;4.40;99.90
25280;DHT22;13225;47.804;12.116;2022-12-20T11:38:41;4.60;99.90
25280;DHT22;13225;47.804;12.116;2022-12-20T11:51:49;4.90;99.90
25280;DHT22;13225;47.804;12.116;2022-12-20T11:54:31;5.00;99.90
25280;DHT22;13225;47.804;12.116;2022-12-20T11:57:04;5.00;99.90
25280;DHT22;13225;47.804;12.116;2022-12-20T11:59:45;5.00;99.90
25280;DHT22;13225;47.804;12.116;2022-12-20T12:02:56;5.10;99.90
25280;DHT22;13225;47.804;12.116;2022-12-20T12:05:27;5.00;99.90
25280;DHT22;13225;47.804;12.116;2022-12-20T12:08:04;4.90;99.90
25280;DHT22;13225;47.804;12.116;2022-12-20T12:10:35;4.90;99.90
25280;DHT22;13225;47.804;12.116;2022-12-20T12:13:17;4.80;99.90
25280;DHT22;13225;47.804;12.116;2022-12-20T12:16:10;4.70;99.90
25280;DHT22;13225;47.804;12.116;2022-12-20T12:18:38;4.60;99.90
25280;DHT22;13225;47.804;12.116;2022-12-20T12:26:19;4.70;99.90
25280;DHT22;13225;47.804;12.116;2022-12-20T12:28:51;4.60;99.90
25280;DHT22;13225;47.804;12.116;2022-12-20T12:31:20;4.40;99.90
25280;DHT22;13225;47.804;12.116;2022-12-20T12:34:00;4.50;99.90
25280;DHT22;13225;47.804;12.116;2022-12-20T12:44:38;4.60;99.90
25280;DHT22;13225;47.804;12.116;2022-12-20T12:48:04;4.60;99.90
25280;DHT22;13225;47.804;12.116;2022-12-20T12:50:31;4.60;99.90
25280;DHT22;13225;47.804;12.116;2022-12-20T12:53:07;4.60;99.90
25280;DHT22;13225;47.804;12.116;2022-12-20T12:55:46;4.60;99.90
25280;DHT22;13225;47.804;12.116;2022-12-20T12:58:29;4.50;99.90
25280;DHT22;13225;47.804;12.116;2022-12-20T13:01:08;4.50;99.90
25280;DHT22;13225;47.804;12.116;2022-12-20T13:11:39;4.30;99.90
25280;DHT22;13225;47.804;12.116;2022-12-20T13:19:35;4.10;99.90
25280;DHT22;13225;47.804;12.116;2022-12-20T13:24:39;4.10;99.90
25280;DHT22;13225;47.804;12.116;2022-12-20T13:32:58;3.90;99.90
25280;DHT22;13225;47.804;12.116;2022-12-20T13:40:42;4.20;99.90
25280;DHT22;13225;47.804;12.116;2022-12-20T13:49:00;4.50;99.90
25280;DHT22;13225;47.804;12.116;2022-12-20T13:51:28;4.40;99.90
25280;DHT22;13225;47.804;12.116;2022-12-20T13:54:36;4.30;99.90
25280;DHT22;13225;47.804;12.116;2022-12-20T13:56:47;4.40;99.90
25280;DHT22;13225;47.804;12.116;2022-12-20T13:59:24;4.40;99.90
25280;DHT22;13225;47.804;12.116;2022-12-20T14:01:56;4.50;99.90
25280;DHT22;13225;47.804;12.116;2022-12-20T14:04:24;5.00;99.90
25280;DHT22;13225;47.804;12.116;2022-12-20T14:06:58;5.60;99.90
25280;DHT22;13225;47.804;12.116;2022-12-20T14:09:34;5.90;99.90
25280;DHT22;13225;47.804;12.116;2022-12-20T14:12:15;6.00;99.90
25280;DHT22;13225;47.804;12.116;2022-12-20T14:14:46;6.30;99.90
25280;DHT22;13225;47.804;12.116;2022-12-20T14:17:31;6.40;99.90
25280;DHT22;13225;47.804;12.116;2022-12-20T14:20:11;6.70;99.90
25280;DHT22;13225;47.804;12.116;2022-12-20T14:25:39;7.40;99.90
25280;DHT22;13225;47.804;12.116;2022-12-20T14:30:46;7.40;99.90
25280;DHT22;13225;47.804;12.116;2022-12-20T14:33:20;6.90;99.90
25280;DHT22;13225;47.804;12.116;2022-12-20T14:35:49;6.40;99.90
25280;DHT22;13225;47.804;12.116;2022-12-20T14:38:27;5.60;99.90
25280;DHT22;13225;47.804;12.116;2022-12-20T14:40:53;5.30;99.90
25280;DHT22;13225;47.804;12.116;2022-12-20T14:43:28;5.00;99.90
25280;DHT22;13225;47.804;12.116;2022-12-20T14:46:12;4.80;99.90
25280;DHT22;13225;47.804;12.116;2022-12-20T14:48:39;4.50;99.90
25280;DHT22;13225;47.804;12.116;2022-12-20T14:51:05;4.30;99.90
25280;DHT22;13225;47.804;12.116;2022-12-20T14:53:31;4.20;99.90
25280;DHT22;13225;47.804;12.116;2022-12-20T14:55:57;4.00;99.90
25280;DHT22;13225;47.804;12.116;2022-12-20T14:58:32;4.00;99.90
25280;DHT22;13225;47.804;12.116;2022-12-20T15:01:00;3.80;99.90
25280;DHT22;13225;47.804;12.116;2022-12-20T15:03:27;3.80;99.90
25280;DHT22;13225;47.804;12.116;2022-12-20T15:05:58;3.70;99.90
25280;DHT22;13225;47.804;12.116;2022-12-20T15:08:26;3.60;99.90
25280;DHT22;13225;47.804;12.116;2022-12-20T15:11:09;3.50;99.90
25280;DHT22;13225;47.804;12.116;2022-12-20T15:13:40;3.50;99.90
25280;DHT22;13225;47.804;12.116;2022-12-20T15:16:19;3.40;99.90
25280;DHT22;13225;47.804;12.116;2022-12-20T15:18:48;3.40;99.90
25280;DHT22;13225;47.804;12.116;2022-12-20T15:21:17;3.40;99.90
25280;DHT22;13225;47.804;12.116;2022-12-20T15:23:49;3.30;99.90
25280;DHT22;13225;47.804;12.116;2022-12-20T15:26:17;3.30;99.90
25280;DHT22;13225;47.804;12.116;2022-12-20T15:28:43;3.30;99.90
25280;DHT22;13225;47.804;12.116;2022-12-20T15:31:10;3.30;99.90
25280;DHT22;13225;47.804;12.116;2022-12-20T15:33:38;3.30;99.90
25280;DHT22;13225;47.804;12.116;2022-12-20T15:36:04;3.40;99.90
25280;DHT22;13225;47.804;12.116;2022-12-20T15:38:30;3.60;99.90
25280;DHT22;13225;47.804;12.116;2022-12-20T15:41:04;3.80;99.90
25280;DHT22;13225;47.804;12.116;2022-12-20T15:43:37;4.10;99.90
25280;DHT22;13225;47.804;12.116;2022-12-20T15:46:03;4.20;99.90
25280;DHT22;13225;47.804;12.116;2022-12-20T15:48:28;4.30;99.90
25280;DHT22;13225;47.804;12.116;2022-12-20T15:50:56;4.20;99.90
25280;DHT22;13225;47.804;12.116;2022-12-20T15:53:32;4.10;99.90
25280;DHT22;13225;47.804;12.116;2022-12-20T15:55:58;3.90;99.90
25280;DHT22;13225;47.804;12.116;2022-12-20T15:58:25;3.80;99.90
25280;DHT22;13225;47.804;12.116;2022-12-20T16:00:53;3.70;99.90
25280;DHT22;13225;47.804;12.116;2022-12-20T16:03:22;3.50;99.90
25280;DHT22;13225;47.804;12.116;2022-12-20T16:05:49;3.30;99.90
25280;DHT22;13225;47.804;12.116;2022-12-20T16:08:16;3.20;99.90
25280;DHT22;13225;47.804;12.116;2022-12-20T16:10:44;3.10;99.90
25280;DHT22;13225;47.804;12.116;2022-12-20T16:13:31;3.00;99.90
25280;DHT22;13225;47.804;12.116;2022-12-20T16:15:56;2.90;99.90
25280;DHT22;13225;47.804;12.116;2022-12-20T16:18:22;2.90;99.90
25280;DHT22;13225;47.804;12.116;2022-12-20T16:20:47;2.80;99.90
25280;DHT22;13225;47.804;12.116;2022-12-20T16:23:19;2.70;99.90
25280;DHT22;13225;47.804;12.116;2022-12-20T16:25:47;2.70;99.90
25280;DHT22;13225;47.804;12.116;2022-12-20T16:28:15;2.70;99.90
25280;DHT22;13225;47.804;12.116;2022-12-20T16:30:40;2.70;99.90
25280;DHT22;13225;47.804;12.116;2022-12-20T16:33:10;2.70;99.90
25280;DHT22;13225;47.804;12.116;2022-12-20T16:35:37;2.80;99.90
25280;DHT22;13225;47.804;12.116;2022-12-20T16:38:02;3.00;99.90
25280;DHT22;13225;47.804;12.116;2022-12-20T16:40:30;3.20;99.90
25280;DHT22;13225;47.804;12.116;2022-12-20T16:42:57;3.20;99.90
25280;DHT22;13225;47.804;12.116;2022-12-20T16:45:26;3.20;99.90
25280;DHT22;13225;47.804;12.116;2022-12-20T16:47:52;3.20;99.90
25280;DHT22;13225;47.804;12.116;2022-12-20T16:50:21;3.20;99.90
25280;DHT22;13225;47.804;12.116;2022-12-20T16:52:47;3.10;99.90
25280;DHT22;13225;47.804;12.116;2022-12-20T16:55:23;3.10;99.90
25280;DHT22;13225;47.804;12.116;2022-12-20T16:57:49;3.00;99.90
25280;DHT22;13225;47.804;12.116;2022-12-20T17:00:18;2.90;99.90
25280;DHT22;13225;47.804;12.116;2022-12-20T17:02:44;2.70;99.90
25280;DHT22;13225;47.804;12.116;2022-12-20T17:05:39;2.60;99.90
25280;DHT22;13225;47.804;12.116;2022-12-20T17:08:05;2.50;99.90
25280;DHT22;13225;47.804;12.116;2022-12-20T17:10:31;2.50;99.90
25280;DHT22;13225;47.804;12.116;2022-12-20T17:12:56;2.40;99.90
25280;DHT22;13225;47.804;12.116;2022-12-20T17:15:28;2.40;99.90
25280;DHT22;13225;47.804;12.116;2022-12-20T17:17:54;2.40;99.90
25280;DHT22;13225;47.804;12.116;2022-12-20T17:20:21;2.40;99.90
25280;DHT22;13225;47.804;12.116;2022-12-20T17:22:52;2.40;99.90
25280;DHT22;13225;47.804;12.116;2022-12-20T17:25:32;2.40;99.90
25280;DHT22;13225;47.804;12.116;2022-12-20T17:27:59;2.40;99.90
25280;DHT22;13225;47.804;12.116;2022-12-20T17:30:25;2.40;99.90
25280;DHT22;13225;47.804;12.116;2022-12-20T17:32:51;2.40;99.90
25280;DHT22;13225;47.804;12.116;2022-12-20T17:35:27;2.40;99.90
25280;DHT22;13225;47.804;12.116;2022-12-20T17:37:55;2.30;99.90
25280;DHT22;13225;47.804;12.116;2022-12-20T17:40:24;2.30;99.90
25280;DHT22;13225;47.804;12.116;2022-12-20T17:42:50;2.20;99.90